Time;durP1;ratioP1;P1;durP2;ratioP2;P2;SDS_P1;SDS_P2;PMS_P1;PMS_P2;Temp;Humidity;BMP_temperature;BMP_pressure;BME280_temperature;BME280_humidity;BME280_pressure;Samples;Min_cycle;Max_cycle;Signal;HPM_P1;HPM_P2
2022/10/22 00:00:53;;;;;;;11.45;8.60;;;;;;;7.67;100.00;62787.31;4982370;28;20227;-77
2022/10/22 00:03:20;;;;;;;10.50;8.82;;;;;;;7.66;100.00;62785.75;4986006;28;20200;-77
2022/10/22 00:05:48;;;;;;;10.18;8.02;;;;;;;7.59;100.00;62779.03;4985239;28;20212;-78
2022/10/22 00:08:14;;;;;;;21.63;8.75;;;;;;;7.54;100.00;62770.84;4974114;28;20235;-77
2022/10/22 00:10:41;;;;;;;12.50;9.70;;;;;;;7.48;100.00;62762.63;4976894;28;20247;-78
2022/10/22 00:13:08;;;;;;;10.75;8.52;;;;;;;7.44;100.00;62766.09;4984670;28;20559;-76
2022/10/22 00:15:37;;;;;;;10.95;8.60;;;;;;;7.45;100.00;62764.59;4982907;28;20218;-77
2022/10/22 00:18:04;;;;;;;11.15;8.52;;;;;;;7.46;100.00;62770.16;4982415;28;20217;-77
2022/10/22 00:20:31;;;;;;;14.93;8.68;;;;;;;7.42;100.00;62761.50;4987005;28;20240;-78
2022/10/22 00:22:58;;;;;;;13.05;8.93;;;;;;;7.38;100.00;62759.91;4988447;28;20216;-77
2022/10/22 00:25:25;;;;;;;8.98;7.88;;;;;;;7.39;100.00;62758.41;4984261;28;20203;-76
2022/10/22 00:27:52;;;;;;;13.52;7.72;;;;;;;7.32;100.00;62753.19;4987844;28;20462;-77
2022/10/22 00:30:19;;;;;;;10.93;8.15;;;;;;;7.31;100.00;62749.63;4989382;28;20215;-77
2022/10/22 00:32:47;;;;;;;10.30;8.35;;;;;;;7.33;100.00;62751.69;4990991;28;20412;-77
2022/10/22 00:35:15;;;;;;;10.20;7.97;;;;;;;7.20;100.00;62741.31;4975311;28;20584;-77
2022/10/22 00:37:42;;;;;;;11.05;8.45;;;;;;;7.25;100.00;62745.97;4983010;28;20223;-77
2022/10/22 00:40:10;;;;;;;10.55;8.43;;;;;;;7.24;100.00;62742.94;4985721;28;20236;-76
2022/10/22 00:42:37;;;;;;;10.73;8.32;;;;;;;7.19;100.00;62739.78;4986985;28;20228;-77
2022/10/22 00:45:17;;;;;;;11.68;8.48;;;;;;;7.16;100.00;62734.16;4973125;28;20260;-77
2022/10/22 00:47:49;;;;;;;12.98;10.45;;;;;;;7.12;100.00;62730.56;4986231;28;20255;-76
2022/10/22 00:50:19;;;;;;;12.65;8.93;;;;;;;7.07;100.00;62732.47;4987737;28;20196;-77
2022/10/22 00:52:46;;;;;;;15.13;9.82;;;;;;;7.03;100.00;62719.25;4983149;28;20272;-77
2022/10/22 00:55:14;;;;;;;19.55;10.18;;;;;;;7.06;100.00;62726.38;4980490;28;20216;-77
2022/10/22 00:57:42;;;;;;;11.95;10.02;;;;;;;7.14;100.00;62735.16;4973444;28;20252;-77
2022/10/22 01:00:10;;;;;;;15.95;10.23;;;;;;;7.09;100.00;62730.00;4984873;28;20242;-77
2022/10/22 01:02:37;;;;;;;13.15;9.68;;;;;;;7.05;100.00;62723.31;4988396;28;20219;-78
2022/10/22 01:05:06;;;;;;;14.10;10.60;;;;;;;7.08;100.00;62731.47;4973426;28;20204;-77
2022/10/22 01:07:40;;;;;;;16.35;11.50;;;;;;;7.08;100.00;62726.41;4968139;28;20524;-76
2022/10/22 01:10:18;;;;;;;18.48;12.95;;;;;;;7.04;100.00;62722.28;4968307;28;20265;-77
2022/10/22 01:12:55;;;;;;;13.98;10.63;;;;;;;7.08;100.00;62736.53;4975459;28;20232;-77
2022/10/22 01:15:28;;;;;;;14.48;10.32;;;;;;;7.11;100.00;62726.47;4987642;28;20203;-77
2022/10/22 01:18:01;;;;;;;14.75;10.25;;;;;;;7.07;100.00;62730.97;4986054;28;20220;-77
2022/10/22 01:21:02;;;;;;;16.33;10.70;;;;;;;7.09;100.00;62724.41;4989250;28;20236;-77
2022/10/22 01:24:02;;;;;;;19.23;10.07;;;;;;;7.10;100.00;62727.97;4985605;28;20199;-76
2022/10/22 01:26:43;;;;;;;11.98;9.60;;;;;;;7.12;100.00;62735.63;4988358;28;20227;-78
2022/10/22 01:29:17;;;;;;;14.05;10.02;;;;;;;7.03;100.00;62724.31;4987124;28;20404;-77
2022/10/22 01:31:48;;;;;;;12.00;10.45;;;;;;;7.03;100.00;62724.31;4984034;28;20271;-77
2022/10/22 01:34:17;;;;;;;12.50;10.10;;;;;;;7.00;100.00;62718.69;4970307;28;20199;-77
2022/10/22 01:36:45;;;;;;;13.27;11.55;;;;;;;7.04;100.00;62722.81;4968498;28;20236;-77
2022/10/22 01:39:15;;;;;;;20.42;11.50;;;;;;;7.04;100.00;62717.75;4967925;28;20204;-77
2022/10/22 01:41:45;;;;;;;15.18;11.18;;;;;;;7.02;100.00;62723.28;4969811;28;20403;-76
2022/10/22 01:44:24;;;;;;;14.35;10.85;;;;;;;7.06;100.00;62726.38;4987435;28;20208;-76
2022/10/22 01:47:02;;;;;;;22.58;14.18;;;;;;;7.07;100.00;62727.94;4990004;28;20261;-77
2022/10/22 01:49:41;;;;;;;22.30;15.65;;;;;;;7.06;100.00;62729.41;4988862;28;20239;-77
2022/10/22 01:52:21;;;;;;;24.45;14.13;;;;;;;7.09;100.00;62730.00;4981974;28;20224;-78
2022/10/22 01:54:59;;;;;;;17.67;11.38;;;;;;;7.08;100.00;62726.41;4988221;28;20235;-78
2022/10/22 01:57:37;;;;;;;21.83;14.70;;;;;;;7.13;100.00;62734.09;4987832;28;20286;-78
2022/10/22 02:00:08;;;;;;;22.08;14.93;;;;;;;7.13;100.00;62733.59;4968807;28;20189;-78
2022/10/22 02:02:42;;;;;;;20.92;15.25;;;;;;;7.16;100.00;62734.16;4982485;28;20232;-77
2022/10/22 02:05:13;;;;;;;22.08;14.40;;;;;;;7.10;100.00;62725.94;4987649;28;20184;-77
2022/10/22 02:07:44;;;;;;;26.90;15.60;;;;;;;7.10;100.00;62730.50;4978639;28;20278;-77
2022/10/22 02:10:12;;;;;;;22.70;15.13;;;;;;;7.06;100.00;62723.84;4987348;28;20212;-77
2022/10/22 02:12:41;;;;;;;20.52;13.77;;;;;;;7.09;100.00;62724.41;4974083;28;20269;-77
2022/10/22 02:15:11;;;;;;;21.23;12.13;;;;;;;7.05;100.00;62725.84;4986325;28;20227;-76
2022/10/22 02:17:39;;;;;;;17.23;12.75;;;;;;;7.06;100.00;62726.38;4985894;28;20224;-77
2022/10/22 02:20:11;;;;;;;21.73;12.68;;;;;;;7.04;100.00;62727.88;4985753;28;20399;-77
2022/10/22 02:22:38;;;;;;;17.55;11.55;;;;;;;7.00;100.00;62723.75;4987878;28;20220;-77
2022/10/22 02:25:06;;;;;;;16.70;11.18;;;;;;;7.06;100.00;62726.88;4984227;28;20270;-78
2022/10/22 02:27:41;;;;;;;12.73;10.07;;;;;;;7.09;100.00;62727.47;4970853;28;20291;-77
2022/10/22 02:30:14;;;;;;;11.60;9.88;;;;;;;6.96;100.00;62714.03;4973269;28;20231;-78
2022/10/22 02:32:46;;;;;;;14.60;10.73;;;;;;;6.92;100.00;62712.97;4966938;28;20252;-78
2022/10/22 02:35:17;;;;;;;12.70;10.50;;;;;;;6.87;100.00;62705.28;4979816;28;20237;-77
2022/10/22 02:37:45;;;;;;;12.48;9.85;;;;;;;6.85;100.00;62700.16;4985677;28;20294;-77
2022/10/22 02:40:12;;;;;;;17.85;9.95;;;;;;;6.86;100.00;62703.72;4985383;28;20244;-76
2022/10/22 02:42:42;;;;;;;9.68;8.40;;;;;;;6.82;100.00;62702.66;4969298;28;20332;-77
2022/10/22 02:45:11;;;;;;;12.63;10.15;;;;;;;6.72;100.00;62689.81;4977766;28;20207;-78
2022/10/22 02:47:38;;;;;;;21.35;10.68;;;;;;;6.77;100.00;62691.91;4986343;28;20283;-77
2022/10/22 02:50:06;;;;;;;18.13;11.10;;;;;;;6.79;100.00;62699.56;4989738;28;20204;-77
2022/10/22 02:52:33;;;;;;;15.57;11.70;;;;;;;6.79;100.00;62693.97;4986251;28;20228;-77
2022/10/22 02:55:00;;;;;;;18.25;11.98;;;;;;;6.79;100.00;62696.50;4985398;28;20203;-76
2022/10/22 02:57:27;;;;;;;17.23;12.35;;;;;;;6.78;100.00;62698.00;4989225;28;20238;-77
2022/10/22 02:59:54;;;;;;;17.20;13.23;;;;;;;6.80;100.00;62695.00;5006216;28;20437;-77
2022/10/22 03:02:22;;;;;;;16.30;11.90;;;;;;;6.79;100.00;62697.03;4989996;28;20231;-78
2022/10/22 03:04:49;;;;;;;16.50;12.15;;;;;;;6.76;100.00;62693.41;4967577;28;20205;-77
2022/10/22 03:07:16;;;;;;;14.43;11.43;;;;;;;6.77;100.00;62696.97;4968195;28;20279;-77
2022/10/22 03:09:43;;;;;;;14.70;11.23;;;;;;;6.75;100.00;62692.88;4968582;28;20188;-76
2022/10/22 03:12:09;;;;;;;18.23;9.85;;;;;;;6.80;100.00;62695.00;4986196;28;20293;-76
2022/10/22 03:14:36;;;;;;;14.70;10.73;;;;;;;6.78;100.00;62698.50;4966745;28;20201;-78
2022/10/22 03:17:03;;;;;;;13.73;9.70;;;;;;;6.75;100.00;62692.88;4975039;28;20216;-77
2022/10/22 03:19:32;;;;;;;13.38;10.75;;;;;;;6.74;100.00;62689.34;4975038;28;20489;-77
2022/10/22 03:22:02;;;;;;;14.10;10.60;;;;;;;6.74;100.00;62694.41;4985033;28;20287;-77
2022/10/22 03:24:34;;;;;;;16.65;10.88;;;;;;;6.74;100.00;62693.88;4983222;28;20555;-78
2022/10/22 03:27:01;;;;;;;15.43;9.98;;;;;;;6.72;100.00;62691.81;4977576;28;20211;-77
2022/10/22 03:29:28;;;;;;;13.98;10.43;;;;;;;6.70;100.00;62695.31;4983506;28;20203;-77
2022/10/22 03:31:55;;;;;;;13.52;10.30;;;;;;;6.67;100.00;62684.66;4970227;28;20239;-77
2022/10/22 03:34:22;;;;;;;13.27;10.63;;;;;;;6.66;100.00;62686.13;4981605;28;20208;-78
2022/10/22 03:36:51;;;;;;;14.65;10.52;;;;;;;6.59;100.00;62676.38;4984651;28;20263;-77
2022/10/22 03:39:20;;;;;;;16.23;12.25;;;;;;;6.59;100.00;62673.34;4982988;28;20204;-78
2022/10/22 03:41:48;;;;;;;14.10;11.00;;;;;;;6.59;100.00;62681.44;4983653;28;20239;-76
2022/10/22 03:44:16;;;;;;;19.55;11.80;;;;;;;6.53;100.00;62667.69;4984062;28;20382;-77
2022/10/22 03:46:43;;;;;;;15.98;11.93;;;;;;;6.51;100.00;62668.13;4984640;28;20236;-76
2022/10/22 03:49:10;;;;;;;17.65;12.57;;;;;;;6.56;100.00;62677.84;4985947;28;20274;-77
2022/10/22 03:51:37;;;;;;;22.58;14.05;;;;;;;6.53;100.00;62670.22;4984541;28;20275;-77
2022/10/22 03:54:06;;;;;;;22.63;14.43;;;;;;;6.57;100.00;62676.34;4988570;28;20199;-77
2022/10/22 03:56:33;;;;;;;27.33;15.70;;;;;;;6.56;100.00;62672.78;4983738;28;20228;-77
2022/10/22 03:59:01;;;;;;;17.77;13.27;;;;;;;6.53;100.00;62672.75;4969346;28;20220;-76
2022/10/22 04:01:29;;;;;;;16.52;12.65;;;;;;;6.54;100.00;62668.69;4987307;28;20243;-78
2022/10/22 04:03:56;;;;;;;17.02;11.85;;;;;;;6.53;100.00;62665.16;4993085;28;20226;-77
2022/10/22 04:06:23;;;;;;;21.73;14.02;;;;;;;6.56;100.00;62670.25;4988580;28;20243;-76
2022/10/22 04:08:50;;;;;;;19.38;11.85;;;;;;;6.61;100.00;62680.47;4986227;28;20196;-75
2022/10/22 04:11:18;;;;;;;22.08;14.25;;;;;;;6.65;100.00;62682.06;4973867;28;20228;-75
2022/10/22 04:13:45;;;;;;;16.05;12.05;;;;;;;6.70;100.00;62684.69;4987113;28;20429;-76
2022/10/22 04:16:14;;;;;;;24.58;13.05;;;;;;;6.76;100.00;62693.94;4988145;28;20223;-76
2022/10/22 04:18:41;;;;;;;16.38;11.55;;;;;;;6.86;100.00;62704.25;4989948;28;20196;-75
2022/10/22 04:21:10;;;;;;;17.38;11.43;;;;;;;6.88;100.00;62708.84;4988199;28;20244;-75
2022/10/22 04:23:37;;;;;;;15.55;11.02;;;;;;;6.88;100.00;62708.31;4988296;28;20216;-76
2022/10/22 04:26:06;;;;;;;20.98;13.23;;;;;;;6.95;100.00;62710.97;4987906;28;20239;-75
2022/10/22 04:28:35;;;;;;;20.55;12.93;;;;;;;6.97;100.00;62717.59;4987723;28;20204;-75
2022/10/22 04:31:08;;;;;;;21.48;13.25;;;;;;;7.03;100.00;62729.38;4989536;28;20262;-76
2022/10/22 04:33:35;;;;;;;16.05;11.02;;;;;;;7.07;100.00;62725.91;4991190;28;20547;-76
2022/10/22 04:36:06;;;;;;;23.27;13.60;;;;;;;7.16;100.00;62737.22;4985901;28;20466;-76
2022/10/22 04:38:33;;;;;;;20.92;13.05;;;;;;;7.27;100.00;62748.03;4987709;28;20427;-75
2022/10/22 04:41:09;;;;;;;17.50;13.07;;;;;;;7.36;100.00;62755.31;4987403;28;20204;-76
2022/10/22 04:43:37;;;;;;;16.45;11.93;;;;;;;7.42;100.00;62763.53;4986883;28;20203;-76
2022/10/22 04:46:04;;;;;;;18.10;12.85;;;;;;;7.50;100.00;62766.72;4987592;28;20262;-75
2022/10/22 04:48:31;;;;;;;18.50;12.90;;;;;;;7.57;100.00;62781.53;4989877;28;20247;-76
2022/10/22 04:50:59;;;;;;;19.70;13.48;;;;;;;7.66;100.00;62786.25;4988423;28;20204;-76
2022/10/22 04:53:27;;;;;;;16.55;11.85;;;;;;;7.69;100.00;62789.38;4984565;28;20199;-76
2022/10/22 04:55:54;;;;;;;20.27;13.80;;;;;;;7.73;100.00;62795.53;4986138;28;20404;-76
2022/10/22 04:58:21;;;;;;;19.50;12.35;;;;;;;7.81;100.00;62803.78;4989373;28;20196;-77
2022/10/22 05:00:49;;;;;;;16.42;12.32;;;;;;;7.86;100.00;62808.94;4989393;28;20267;-76
2022/10/22 05:03:16;;;;;;;17.60;12.57;;;;;;;7.89;100.00;62809.50;4976648;28;20251;-77
2022/10/22 05:05:43;;;;;;;13.63;11.63;;;;;;;7.95;100.00;62816.22;4987049;28;20196;-77
2022/10/22 05:08:10;;;;;;;16.25;11.70;;;;;;;7.93;100.00;62819.22;4988549;28;20207;-77
2022/10/22 05:10:37;;;;;;;21.77;15.65;;;;;;;7.99;100.00;62820.34;4995975;28;20204;-77
2022/10/22 05:13:03;;;;;;;26.67;14.55;;;;;;;8.07;100.00;62828.63;4980412;28;20223;-76
2022/10/22 05:15:30;;;;;;;23.00;16.08;;;;;;;8.14;100.00;62840.91;4975246;28;20204;-76
2022/10/22 05:17:59;;;;;;;23.40;15.60;;;;;;;8.16;100.00;62840.44;4984519;28;20212;-77
2022/10/22 05:20:26;;;;;;;21.95;14.20;;;;;;;8.17;100.00;62838.41;4968099;28;20209;-77
2022/10/22 05:22:53;;;;;;;17.73;12.35;;;;;;;8.06;100.00;62827.03;4975794;28;20259;-76
2022/10/22 05:25:20;;;;;;;22.92;15.10;;;;;;;8.10;100.00;62834.25;4971967;28;20200;-77
2022/10/22 05:27:49;;;;;;;19.15;13.88;;;;;;;8.03;100.00;62826.50;4981488;28;20216;-77
2022/10/22 05:30:16;;;;;;;23.33;15.32;;;;;;;8.03;100.00;62824.47;4982336;28;20428;-76
2022/10/22 05:32:43;;;;;;;26.10;15.93;;;;;;;8.01;100.00;62822.41;4976687;28;20232;-76
2022/10/22 05:35:12;;;;;;;25.13;16.85;;;;;;;8.05;100.00;62826.53;4977370;28;20220;-76
2022/10/22 05:37:38;;;;;;;17.60;13.57;;;;;;;8.02;100.00;62820.41;4974748;28;20220;-76
2022/10/22 05:40:06;;;;;;;20.55;14.88;;;;;;;8.02;100.00;62828.50;4985886;28;20444;-76
2022/10/22 05:42:33;;;;;;;25.17;14.07;;;;;;;8.03;100.00;62829.53;4985963;28;20251;-77
2022/10/22 05:45:00;;;;;;;22.88;14.60;;;;;;;8.02;100.00;62828.00;4983881;28;20369;-75
2022/10/22 05:47:29;;;;;;;24.67;16.33;;;;;;;8.02;100.00;62825.97;5004310;28;20227;-77
2022/10/22 05:49:57;;;;;;;23.48;15.20;;;;;;;8.00;100.00;62821.38;5005136;28;20384;-77
2022/10/22 05:52:25;;;;;;;22.35;14.93;;;;;;;7.94;100.00;62820.25;5005243;28;20257;-78
2022/10/22 05:54:52;;;;;;;27.40;15.35;;;;;;;7.96;100.00;62819.78;5004715;28;20195;-77
2022/10/22 05:57:19;;;;;;;18.20;15.20;;;;;;;8.03;100.00;62824.47;5000390;28;20250;-76
2022/10/22 05:59:46;;;;;;;23.88;14.88;;;;;;;8.06;100.00;62827.56;5004310;28;20199;-77
2022/10/22 06:02:13;;;;;;;19.77;14.68;;;;;;;8.15;100.00;62836.34;5004381;28;20230;-77
2022/10/22 06:04:40;;;;;;;20.40;14.55;;;;;;;8.11;100.00;62835.25;5002305;28;20208;-76
2022/10/22 06:07:13;;;;;;;28.10;17.25;;;;;;;8.06;100.00;62827.56;5002738;28;20226;-78
2022/10/22 06:09:42;;;;;;;34.60;19.73;;;;;;;8.00;100.00;62823.41;5003354;28;20203;-76
2022/10/22 06:12:12;;;;;;;29.30;18.65;;;;;;;8.08;100.00;62829.63;5000897;28;20223;-78
2022/10/22 06:14:39;;;;;;;28.08;19.13;;;;;;;8.29;100.00;62852.84;5002901;28;20628;-77
2022/10/22 06:17:06;;;;;;;27.20;20.05;;;;;;;8.42;100.00;62864.25;5005353;28;20219;-77
2022/10/22 06:19:33;;;;;;;30.30;18.58;;;;;;;8.54;100.00;62881.72;5002859;28;20226;-80
2022/10/22 06:21:59;;;;;;;30.15;17.45;;;;;;;8.70;100.00;62893.19;5000518;28;20544;-78
2022/10/22 06:24:26;;;;;;;26.05;17.40;;;;;;;8.82;100.00;62905.06;5008851;28;20207;-78
2022/10/22 06:26:55;;;;;;;27.85;17.70;;;;;;;8.96;100.00;62922.59;5009555;28;20219;-79
2022/10/22 06:29:22;;;;;;;27.17;17.45;;;;;;;9.07;100.00;62928.88;5006976;28;20199;-76
2022/10/22 06:31:49;;;;;;;26.83;17.58;;;;;;;9.16;100.00;62943.25;5007126;28;20438;-79
2022/10/22 06:34:17;;;;;;;24.45;17.40;;;;;;;9.11;100.00;62940.63;5007304;28;20214;-78
2022/10/22 06:36:44;;;;;;;26.30;17.83;;;;;;;9.11;100.00;62938.09;5007855;28;20219;-78
2022/10/22 06:39:12;;;;;;;24.17;18.38;;;;;;;9.22;100.00;62946.41;4990515;28;20211;-78
2022/10/22 06:41:41;;;;;;;31.67;18.92;;;;;;;9.21;100.00;62940.78;4986630;28;20282;-77
2022/10/22 06:44:14;;;;;;;35.35;20.20;;;;;;;9.13;100.00;62937.09;4997017;28;20513;-77
2022/10/22 06:46:42;;;;;;;38.25;20.95;;;;;;;9.10;100.00;62931.97;4998203;28;20256;-79
2022/10/22 06:49:13;;;;;;;31.17;20.52;;;;;;;9.21;100.00;62950.47;5005452;28;20211;-75
2022/10/22 06:51:40;;;;;;;34.92;21.55;;;;;;;9.32;100.00;62951.66;5005158;28;20227;-77
2022/10/22 06:54:07;;;;;;;34.95;20.23;;;;;;;9.31;100.00;62958.25;5005087;28;20218;-77
2022/10/22 06:56:34;;;;;;;31.00;20.45;;;;;;;9.44;100.00;62968.63;4999813;28;20223;-77
2022/10/22 06:59:03;;;;;;;33.05;22.52;;;;;;;9.57;100.00;62985.13;5006175;28;20325;-79
2022/10/22 07:01:33;;;;;;;32.20;21.27;;;;;;;9.71;100.00;62996.56;4995581;28;20294;-77
2022/10/22 07:04:01;;;;;;;33.70;21.00;;;;;;;9.59;100.00;62989.75;4997252;28;20223;-77
2022/10/22 07:06:29;;;;;;;35.28;20.38;;;;;;;9.61;100.00;62993.84;5002345;28;20235;-76
2022/10/22 07:08:57;;;;;;;36.42;20.45;;;;;;;9.70;100.00;63000.63;5006262;28;20278;-76
2022/10/22 07:11:26;;;;;;;34.67;20.58;;;;;;;9.80;100.00;63008.41;5004973;28;20551;-78
2022/10/22 07:13:55;;;;;;;35.80;21.45;;;;;;;9.95;100.00;63026.47;5007405;28;20231;-77
2022/10/22 07:16:22;;;;;;;32.38;19.92;;;;;;;10.02;100.00;63026.06;5006022;28;20219;-77
2022/10/22 07:18:51;;;;;;;28.73;19.75;;;;;;;9.99;100.00;63028.56;5005806;28;20236;-79
2022/10/22 07:21:21;;;;;;;29.95;21.42;;;;;;;10.04;100.00;63033.75;5013799;28;20431;-79
2022/10/22 07:23:48;;;;;;;32.78;21.15;;;;;;;10.09;100.00;63038.44;5012800;28;20230;-79
2022/10/22 07:26:19;;;;;;;29.80;20.08;;;;;;;10.09;100.00;63038.44;5005877;28;20223;-77
2022/10/22 07:28:46;;;;;;;31.40;20.38;;;;;;;10.06;100.00;63035.81;5004729;28;20203;-77
2022/10/22 07:31:15;;;;;;;30.60;21.50;;;;;;;10.28;100.00;63055.53;5013215;28;20206;-79
2022/10/22 07:33:42;;;;;;;31.92;19.38;;;;;;;10.49;100.00;63077.78;5006225;28;20206;-78
2022/10/22 07:36:16;;;;;;;32.53;19.10;;;;;;;10.64;100.00;63092.28;5006937;28;20233;-79
2022/10/22 07:38:43;;;;;;;31.00;19.80;;;;;;;10.59;100.00;63092.72;5005824;28;20207;-79
2022/10/22 07:41:10;;;;;;;32.35;18.95;;;;;;;10.56;100.00;63086.53;5010992;28;20443;-79
2022/10/22 07:43:37;;;;;;;32.55;17.83;;;;;;;10.56;100.00;63089.59;5004552;28;20227;-78
2022/10/22 07:46:04;;;;;;;31.95;18.83;;;;;;;10.70;100.00;63099.00;5005090;28;20266;-79
2022/10/22 07:48:31;;;;;;;26.83;19.88;;;;;;;11.04;100.00;63131.13;4998705;28;20234;-79
2022/10/22 07:50:58;;;;;;;37.58;19.98;;;;;;;11.27;99.46;63160.03;4986933;28;20200;-79
2022/10/22 07:53:26;;;;;;;30.92;19.75;;;;;;;11.23;97.31;63153.88;4987380;28;20484;-79
2022/10/22 07:55:54;;;;;;;24.83;17.98;;;;;;;11.39;97.58;63170.44;4999277;28;20243;-78
2022/10/22 07:58:22;;;;;;;29.60;18.55;;;;;;;11.63;96.45;63200.41;5005776;28;20195;-79
2022/10/22 08:00:49;;;;;;;25.50;18.67;;;;;;;11.79;95.28;63213.41;4990781;28;20204;-77
2022/10/22 08:03:18;;;;;;;24.70;16.50;;;;;;;11.84;94.38;63216.06;5007329;28;20551;-78
2022/10/22 08:05:45;;;;;;;23.83;16.42;;;;;;;11.84;92.00;63213.50;5006239;28;20204;-78
2022/10/22 08:08:13;;;;;;;30.30;15.73;;;;;;;11.79;91.32;63213.41;5001890;28;20267;-78
2022/10/22 08:10:42;;;;;;;23.02;15.52;;;;;;;11.69;91.08;63203.56;4986317;28;20248;-77
2022/10/22 08:13:09;;;;;;;23.08;16.00;;;;;;;11.77;91.91;63211.34;4996633;28;20210;-78
2022/10/22 08:15:36;;;;;;;27.58;17.23;;;;;;;11.85;91.88;63219.63;5025045;28;20203;-77
2022/10/22 08:18:03;;;;;;;30.08;18.00;;;;;;;12.05;92.37;63243.44;5021162;28;20218;-78
2022/10/22 08:20:30;;;;;;;32.00;18.30;;;;;;;12.20;91.32;63253.34;5014322;28;20217;-77
2022/10/22 08:22:58;;;;;;;27.55;17.80;;;;;;;12.37;90.80;63276.09;5017521;28;20242;-79
2022/10/22 08:25:25;;;;;;;29.80;18.45;;;;;;;12.35;89.66;63268.91;5020803;28;20535;-77
2022/10/22 08:27:54;;;;;;;25.17;17.77;;;;;;;12.48;88.43;63282.38;5023328;28;20590;-79
2022/10/22 08:30:21;;;;;;;26.10;17.63;;;;;;;12.56;87.96;63293.22;5024906;28;20223;-77
2022/10/22 08:32:47;;;;;;;25.08;16.00;;;;;;;12.79;87.31;63317.59;5011767;28;20220;-77
2022/10/22 08:35:14;;;;;;;21.20;15.85;;;;;;;12.98;87.48;63334.22;4986280;28;20200;-79
2022/10/22 08:37:41;;;;;;;22.80;14.25;;;;;;;12.94;84.75;63332.13;4987196;28;20418;-78
2022/10/22 08:40:18;;;;;;;22.05;12.82;;;;;;;13.15;84.47;63353.91;4994612;28;20200;-79
2022/10/22 08:43:23;;;;;;;22.30;12.55;;;;;;;13.09;81.01;63350.25;4996334;28;20278;-78
2022/10/22 08:46:00;;;;;;;17.38;13.15;;;;;;;12.95;81.66;63330.59;4989101;28;20210;-78
2022/10/22 08:48:43;;;;;;;20.48;13.70;;;;;;;12.97;82.35;63340.34;4988235;28;20315;-78
2022/10/22 08:51:15;;;;;;;18.20;14.15;;;;;;;12.98;83.11;63339.34;4988302;28;20267;-79
2022/10/22 08:53:51;;;;;;;22.60;15.32;;;;;;;13.04;83.43;63339.94;4989071;28;20196;-79
2022/10/22 08:56:18;;;;;;;20.33;15.50;;;;;;;13.32;82.77;63372.06;4992176;28;20219;-77
2022/10/22 08:58:53;;;;;;;21.60;15.82;;;;;;;13.42;80.16;63381.94;4995376;28;20203;-78
2022/10/22 09:01:24;;;;;;;21.17;15.38;;;;;;;13.60;79.29;63398.03;4972171;28;20298;-78
2022/10/22 09:03:54;;;;;;;19.80;14.68;;;;;;;13.56;80.50;63394.41;4987707;28;20236;-79
2022/10/22 09:06:24;;;;;;;21.77;15.48;;;;;;;13.37;79.56;63377.25;4987705;28;20291;-78
2022/10/22 09:08:52;;;;;;;26.00;15.60;;;;;;;13.60;79.84;63400.59;4985585;28;20200;-78
2022/10/22 09:11:25;;;;;;;20.40;15.45;;;;;;;13.49;79.05;63384.59;4984320;28;20220;-78
2022/10/22 09:13:56;;;;;;;23.63;15.07;;;;;;;13.54;79.10;63394.38;4983644;28;20200;-78
2022/10/22 09:16:36;;;;;;;21.27;14.57;;;;;;;13.79;78.26;63420.31;4985650;28;20270;-77
2022/10/22 09:19:15;;;;;;;31.83;15.20;;;;;;;14.03;77.55;63447.78;4983789;28;20223;-78
2022/10/22 09:21:52;;;;;;;28.50;16.63;;;;;;;14.00;77.08;63447.25;4985744;28;20215;-78
2022/10/22 09:24:31;;;;;;;20.85;14.98;;;;;;;14.18;74.22;63465.94;4982878;28;20233;-79
2022/10/22 09:26:59;;;;;;;23.67;14.98;;;;;;;14.47;72.51;63488.38;4985116;28;20220;-78
2022/10/22 09:29:32;;;;;;;25.77;14.65;;;;;;;14.57;73.78;63498.75;4986752;28;20202;-78
2022/10/22 09:31:59;;;;;;;28.95;16.83;;;;;;;14.63;71.00;63507.56;4984991;28;20228;-78
2022/10/22 09:34:26;;;;;;;23.10;15.43;;;;;;;14.63;72.24;63505.00;4981113;28;20211;-77
2022/10/22 09:36:58;;;;;;;24.65;15.30;;;;;;;14.63;70.75;63509.59;4987049;28;20313;-78
2022/10/22 09:39:29;;;;;;;22.05;15.57;;;;;;;14.79;70.50;63521.09;4986100;28;20196;-77
2022/10/22 09:41:56;;;;;;;27.70;15.25;;;;;;;14.81;70.82;63528.28;4984838;28;20238;-77
2022/10/22 09:44:23;;;;;;;24.55;15.23;;;;;;;15.05;72.11;63553.75;4984460;28;20231;-78
2022/10/22 09:46:51;;;;;;;24.77;16.13;;;;;;;15.17;69.39;63560.06;4988350;28;20223;-79
2022/10/22 09:49:21;;;;;;;28.23;16.58;;;;;;;15.12;68.43;63555.38;4986716;28;20507;-79
2022/10/22 09:51:54;;;;;;;26.20;17.25;;;;;;;15.35;66.60;63584.41;4986326;28;20215;-81
2022/10/22 09:54:23;;;;;;;21.48;15.55;;;;;;;15.43;64.16;63589.69;4984365;28;20200;-78
2022/10/22 09:56:54;;;;;;;26.88;15.68;;;;;;;15.44;64.98;63588.66;4984990;28;20447;-77
2022/10/22 09:59:29;;;;;;;19.92;15.10;;;;;;;15.48;65.97;63595.38;4986589;28;20207;-78
2022/10/22 10:02:06;;;;;;;27.75;16.67;;;;;;;15.64;66.42;63614.59;4982243;28;20435;-79
2022/10/22 10:04:35;;;;;;;22.98;15.18;;;;;;;15.83;63.73;63634.34;4987214;28;20234;-78
2022/10/22 10:07:02;;;;;;;20.40;15.20;;;;;;;15.77;62.47;63625.53;4985700;28;20227;-79
2022/10/22 10:09:32;;;;;;;21.83;16.20;;;;;;;15.72;63.86;63622.88;4984971;28;20211;-78
2022/10/22 10:12:09;;;;;;;18.60;15.32;;;;;;;15.29;65.61;63572.53;4986775;28;20258;-78
2022/10/22 10:14:49;;;;;;;23.08;16.52;;;;;;;15.58;63.10;63605.25;4986541;28;20199;-78
2022/10/22 10:17:25;;;;;;;26.85;16.70;;;;;;;15.78;62.80;63623.47;4982867;28;20290;-78
2022/10/22 10:20:02;;;;;;;24.98;15.80;;;;;;;15.71;62.69;63618.75;4982253;28;20440;-78
2022/10/22 10:22:49;;;;;;;29.35;15.13;;;;;;;15.74;62.82;63624.97;4985903;28;20546;-78
2022/10/22 10:25:48;;;;;;;24.25;15.80;;;;;;;15.96;62.97;63640.13;4984787;28;20214;-79
2022/10/22 10:28:47;;;;;;;23.30;15.15;;;;;;;15.98;63.42;63646.84;4975457;28;20219;-77
2022/10/22 10:31:27;;;;;;;21.80;15.15;;;;;;;16.13;65.15;63662.44;4984546;28;20227;-78
2022/10/22 10:34:04;;;;;;;22.85;15.32;;;;;;;16.27;62.58;63673.91;4984756;28;20238;-77
2022/10/22 10:36:41;;;;;;;29.08;15.75;;;;;;;16.19;60.92;63669.19;4984589;28;20215;-78
2022/10/22 10:39:12;;;;;;;26.75;16.08;;;;;;;16.40;62.04;63692.56;4979213;28;20199;-78
2022/10/22 10:41:49;;;;;;;22.40;15.20;;;;;;;16.51;58.88;63701.47;4981865;28;20223;-78
2022/10/22 10:44:30;;;;;;;21.05;14.65;;;;;;;16.56;58.92;63706.66;4986569;28;20234;-78
2022/10/22 10:47:10;;;;;;;17.75;14.63;;;;;;;16.75;58.36;63726.44;4982850;28;20215;-78
2022/10/22 10:49:38;;;;;;;23.90;13.95;;;;;;;16.94;59.07;63746.22;4977423;28;20496;-78
2022/10/22 10:52:16;;;;;;;20.33;13.93;;;;;;;17.16;58.45;63772.19;4979880;28;20267;-79
2022/10/22 10:54:52;;;;;;;20.23;14.27;;;;;;;17.17;56.24;63767.59;4980821;28;20504;-78
2022/10/22 10:57:29;;;;;;;19.23;13.18;;;;;;;16.95;56.71;63747.78;4985052;28;20214;-79
2022/10/22 11:00:07;;;;;;;23.38;14.70;;;;;;;17.09;56.83;63761.81;4973589;28;20515;-78
2022/10/22 11:02:51;;;;;;;19.05;12.73;;;;;;;17.25;57.18;63783.63;4984320;28;20767;-78
2022/10/22 11:05:30;;;;;;;21.08;13.70;;;;;;;17.39;54.62;63795.63;4978101;28;20200;-78
2022/10/22 11:08:00;;;;;;;22.35;13.27;;;;;;;17.40;56.49;63796.66;4969733;28;20279;-78
2022/10/22 11:10:34;;;;;;;14.82;12.50;;;;;;;17.41;55.19;63797.19;4979759;28;20372;-79
2022/10/22 11:13:11;;;;;;;25.08;13.05;;;;;;;17.32;54.08;63788.34;4981953;28;20347;-77
2022/10/22 11:15:41;;;;;;;17.52;13.88;;;;;;;17.30;54.52;63788.81;4986034;28;20270;-79
2022/10/22 11:18:17;;;;;;;18.42;12.63;;;;;;;17.45;54.41;63801.34;4985908;28;20277;-80
2022/10/22 11:20:53;;;;;;;17.10;11.52;;;;;;;17.33;54.34;63786.78;4971291;28;20211;-77
2022/10/22 11:23:28;;;;;;;13.20;11.73;;;;;;;17.53;55.83;63807.66;4984897;28;20237;-76
2022/10/22 11:25:54;;;;;;;15.80;12.15;;;;;;;17.77;54.98;63832.13;4985859;28;20191;-77
2022/10/22 11:28:27;;;;;;;13.63;10.48;;;;;;;17.92;54.03;63850.31;4981912;28;20218;-78
2022/10/22 11:31:01;;;;;;;20.85;11.95;;;;;;;18.00;52.74;63856.59;5005051;28;20559;-78